Lea County Regional Airport


Codes: KHOB/HOB
Name: Lea County Regional Airport
City: Hobbs
Country: United States
Elevation: 3661 ft.
Wikipedia:

Photos at Lea County Regional Airport


   Photos courtesy of SpottingLog. You can add your own sightings and photos by signing up for a free trial today.



No photos found.

Weather at Lea County Regional Airport


Time (UTC)DescriptionTempratureWindCloud coverageVisibilityPressureHumidity
15-Apr-2024 18:00Scattered Clouds23°C16 mph, SW31%10000m1009hPa32%
15-Apr-2024 21:00Scattered Clouds27°C31 mph, SW35%10000m1005hPa17%
16-Apr-2024 00:00Scattered Clouds28°C27 mph, SW28%10000m1001hPa5%
16-Apr-2024 03:00Clear Sky22°C27 mph, W0%10000m1006hPa11%
16-Apr-2024 06:00Clear Sky17°C16 mph, NW0%10000m1009hPa14%
16-Apr-2024 09:00Few Clouds14°C11 mph, W15%10000m1010hPa19%
16-Apr-2024 12:00Scattered Clouds13°C16 mph, W48%10000m1011hPa18%
16-Apr-2024 15:00Overcast Clouds18°C22 mph, W99%10000m1011hPa17%
16-Apr-2024 18:00Overcast Clouds23°C18 mph, W100%10000m1009hPa11%
16-Apr-2024 21:00Overcast Clouds27°C18 mph, W91%10000m1006hPa7%
17-Apr-2024 00:00Overcast Clouds27°C18 mph, SW86%10000m1006hPa7%
17-Apr-2024 03:00Overcast Clouds21°C13 mph, W100%10000m1009hPa10%
17-Apr-2024 06:00Overcast Clouds19°C9 mph, W100%10000m1011hPa14%
17-Apr-2024 09:00Overcast Clouds17°C11 mph, W100%10000m1011hPa15%
17-Apr-2024 12:00Overcast Clouds16°C9 mph, NW100%10000m1012hPa21%
17-Apr-2024 15:00Overcast Clouds21°C9 mph, N100%10000m1013hPa19%
17-Apr-2024 18:00Overcast Clouds26°C7 mph, SW99%10000m1012hPa12%
17-Apr-2024 21:00Overcast Clouds29°C9 mph, SW100%10000m1009hPa8%
18-Apr-2024 00:00Overcast Clouds28°C9 mph, SW100%10000m1008hPa7%
18-Apr-2024 03:00Overcast Clouds23°C9 mph, SW100%10000m1011hPa9%
18-Apr-2024 06:00Overcast Clouds21°C11 mph, W100%10000m1010hPa10%
18-Apr-2024 09:00Overcast Clouds19°C9 mph, W100%10000m1010hPa11%
18-Apr-2024 12:00Broken Clouds18°C9 mph, SW64%10000m1011hPa12%
18-Apr-2024 15:00Clear Sky24°C11 mph, SW0%10000m1012hPa10%
18-Apr-2024 18:00Clear Sky29°C7 mph, NW0%10000m1010hPa8%
18-Apr-2024 21:00Clear Sky31°C11 mph, SW0%10000m1008hPa7%
19-Apr-2024 00:00Clear Sky30°C4 mph, N0%10000m1006hPa6%
19-Apr-2024 03:00Clear Sky24°C4 mph, S0%10000m1009hPa9%
19-Apr-2024 06:00Few Clouds16°C22 mph, E14%10000m1015hPa56%
19-Apr-2024 09:00Scattered Clouds12°C18 mph, E32%10000m1016hPa72%
19-Apr-2024 12:00Broken Clouds11°C16 mph, NE66%10000m1017hPa75%
19-Apr-2024 15:00Overcast Clouds13°C13 mph, NE100%10000m1019hPa66%
19-Apr-2024 18:00Overcast Clouds17°C13 mph, E100%10000m1017hPa53%
19-Apr-2024 21:00Overcast Clouds18°C16 mph, E92%10000m1015hPa51%
20-Apr-2024 00:00Broken Clouds16°C13 mph, E80%10000m1015hPa59%
20-Apr-2024 03:00Clear Sky11°C18 mph, E0%10000m1016hPa73%
20-Apr-2024 06:00Clear Sky10°C13 mph, E0%10000m1017hPa77%
20-Apr-2024 09:00Light Rain10°C11 mph, E39%3335m1017hPa85%
20-Apr-2024 12:00Moderate Rain11°C13 mph, E70%10000m1016hPa91%
20-Apr-2024 15:00Light Rain12°C13 mph, E97%10000m1016hPa91%